17  °C
Temperature
63  °F
Temperature
55  °F
 Dewpoint
13  °C
  Dewpoint
77  %
 Humidity
  Temperature
16  mph
Wind Speed
14  kts
Wind Speed
26  km/h
Wind Speed
7.2  m/s
Wind Speed
200°
South South
West

Wind Speed
Light Rain
Showers
Pressure 1014.92 (mb) - 29.97 (inHG)
Visibility 6.2 (mi) - 10.0 (km)

Sky Conditions
EGGD
Location Bristol International 15 mi (24.14 km)
Metar :EGGD 161320Z 20014G24KT 170V240 9999 6000W -SHRA SCT020CB SCT030 17/13 Q1015
Sun 16th June 14:20 pm

Nearest Airport
https://www.checkwx.com/weather/EGGD
  Metar Aviation API Data Provided by https://www.checkwx.com/ Original CSS/SVG/PHP scripts by weather34.com © 2015-2019